sensor_id;sensor_type;location;lat;lon;timestamp;P1;durP1;ratioP1;P2;durP2;ratioP2
20454;SDS011;10386;54.314;10.022;2022-11-20T00:00:06;8.00;;;4.80;;
20454;SDS011;10386;54.314;10.022;2022-11-20T00:02:34;7.57;;;4.33;;
20454;SDS011;10386;54.314;10.022;2022-11-20T00:05:01;11.10;;;4.57;;
20454;SDS011;10386;54.314;10.022;2022-11-20T00:07:28;7.47;;;4.43;;
20454;SDS011;10386;54.314;10.022;2022-11-20T00:09:56;7.23;;;4.30;;
20454;SDS011;10386;54.314;10.022;2022-11-20T00:12:23;7.73;;;4.30;;
20454;SDS011;10386;54.314;10.022;2022-11-20T00:14:52;9.37;;;4.93;;
20454;SDS011;10386;54.314;10.022;2022-11-20T00:17:19;9.03;;;4.80;;
20454;SDS011;10386;54.314;10.022;2022-11-20T00:19:46;6.97;;;4.60;;
20454;SDS011;10386;54.314;10.022;2022-11-20T00:22:13;6.33;;;4.37;;
20454;SDS011;10386;54.314;10.022;2022-11-20T00:24:41;6.37;;;4.50;;
20454;SDS011;10386;54.314;10.022;2022-11-20T00:27:08;6.27;;;4.60;;
20454;SDS011;10386;54.314;10.022;2022-11-20T00:29:35;9.30;;;4.63;;
20454;SDS011;10386;54.314;10.022;2022-11-20T00:32:03;7.60;;;4.63;;
20454;SDS011;10386;54.314;10.022;2022-11-20T00:34:31;13.43;;;4.90;;
20454;SDS011;10386;54.314;10.022;2022-11-20T00:36:58;8.83;;;4.40;;
20454;SDS011;10386;54.314;10.022;2022-11-20T00:39:26;7.03;;;4.53;;
20454;SDS011;10386;54.314;10.022;2022-11-20T00:41:54;8.83;;;4.37;;
20454;SDS011;10386;54.314;10.022;2022-11-20T00:44:22;8.43;;;4.70;;
20454;SDS011;10386;54.314;10.022;2022-11-20T00:46:50;7.47;;;4.53;;
20454;SDS011;10386;54.314;10.022;2022-11-20T00:49:17;8.07;;;4.70;;
20454;SDS011;10386;54.314;10.022;2022-11-20T00:51:45;8.60;;;4.60;;
20454;SDS011;10386;54.314;10.022;2022-11-20T00:54:15;9.27;;;4.20;;
20454;SDS011;10386;54.314;10.022;2022-11-20T00:57:07;7.07;;;4.50;;
20454;SDS011;10386;54.314;10.022;2022-11-20T00:59:35;7.40;;;4.60;;
20454;SDS011;10386;54.314;10.022;2022-11-20T01:02:03;8.87;;;4.40;;
20454;SDS011;10386;54.314;10.022;2022-11-20T01:04:31;10.13;;;4.40;;
20454;SDS011;10386;54.314;10.022;2022-11-20T01:06:59;7.80;;;4.70;;
20454;SDS011;10386;54.314;10.022;2022-11-20T01:09:27;9.30;;;4.60;;
20454;SDS011;10386;54.314;10.022;2022-11-20T01:11:56;7.17;;;4.97;;
20454;SDS011;10386;54.314;10.022;2022-11-20T01:14:25;7.33;;;4.70;;
20454;SDS011;10386;54.314;10.022;2022-11-20T01:16:52;7.90;;;4.40;;
20454;SDS011;10386;54.314;10.022;2022-11-20T01:19:22;6.40;;;4.17;;
20454;SDS011;10386;54.314;10.022;2022-11-20T01:21:53;7.10;;;4.10;;
20454;SDS011;10386;54.314;10.022;2022-11-20T01:24:21;4.83;;;3.70;;
20454;SDS011;10386;54.314;10.022;2022-11-20T01:26:50;7.00;;;4.07;;
20454;SDS011;10386;54.314;10.022;2022-11-20T01:29:19;7.87;;;3.73;;
20454;SDS011;10386;54.314;10.022;2022-11-20T01:31:50;8.33;;;4.00;;
20454;SDS011;10386;54.314;10.022;2022-11-20T01:34:21;6.17;;;3.53;;
20454;SDS011;10386;54.314;10.022;2022-11-20T01:36:50;7.17;;;3.70;;
20454;SDS011;10386;54.314;10.022;2022-11-20T01:39:19;8.73;;;3.90;;
20454;SDS011;10386;54.314;10.022;2022-11-20T01:41:49;7.17;;;3.70;;
20454;SDS011;10386;54.314;10.022;2022-11-20T01:47:18;5.07;;;3.40;;
20454;SDS011;10386;54.314;10.022;2022-11-20T01:52:45;6.70;;;3.73;;
20454;SDS011;10386;54.314;10.022;2022-11-20T01:55:19;8.93;;;4.00;;
20454;SDS011;10386;54.314;10.022;2022-11-20T01:57:52;6.47;;;4.10;;
20454;SDS011;10386;54.314;10.022;2022-11-20T02:00:21;7.73;;;3.90;;
20454;SDS011;10386;54.314;10.022;2022-11-20T02:02:53;6.33;;;3.97;;
20454;SDS011;10386;54.314;10.022;2022-11-20T02:05:45;7.67;;;4.03;;
20454;SDS011;10386;54.314;10.022;2022-11-20T02:08:19;5.80;;;4.07;;
20454;SDS011;10386;54.314;10.022;2022-11-20T02:10:53;5.20;;;3.90;;
20454;SDS011;10386;54.314;10.022;2022-11-20T02:13:21;7.50;;;3.90;;
20454;SDS011;10386;54.314;10.022;2022-11-20T02:16:11;7.37;;;3.90;;
20454;SDS011;10386;54.314;10.022;2022-11-20T02:18:39;6.90;;;3.80;;
20454;SDS011;10386;54.314;10.022;2022-11-20T02:26:23;8.30;;;4.30;;
20454;SDS011;10386;54.314;10.022;2022-11-20T02:28:54;8.13;;;3.70;;
20454;SDS011;10386;54.314;10.022;2022-11-20T02:31:21;6.90;;;3.70;;
20454;SDS011;10386;54.314;10.022;2022-11-20T02:33:54;6.63;;;3.70;;
20454;SDS011;10386;54.314;10.022;2022-11-20T02:36:23;6.00;;;4.00;;
20454;SDS011;10386;54.314;10.022;2022-11-20T02:38:55;6.57;;;3.83;;
20454;SDS011;10386;54.314;10.022;2022-11-20T02:41:35;8.03;;;3.43;;
20454;SDS011;10386;54.314;10.022;2022-11-20T02:44:03;9.03;;;3.63;;
20454;SDS011;10386;54.314;10.022;2022-11-20T02:46:32;4.70;;;3.50;;
20454;SDS011;10386;54.314;10.022;2022-11-20T02:49:00;5.97;;;4.33;;
20454;SDS011;10386;54.314;10.022;2022-11-20T02:51:29;6.17;;;3.27;;
20454;SDS011;10386;54.314;10.022;2022-11-20T02:56:49;7.37;;;3.67;;
20454;SDS011;10386;54.314;10.022;2022-11-20T02:59:16;3.50;;;3.20;;
20454;SDS011;10386;54.314;10.022;2022-11-20T03:01:46;5.87;;;3.93;;
20454;SDS011;10386;54.314;10.022;2022-11-20T03:04:13;6.47;;;3.23;;
20454;SDS011;10386;54.314;10.022;2022-11-20T03:06:40;6.63;;;3.70;;
20454;SDS011;10386;54.314;10.022;2022-11-20T03:09:08;5.70;;;3.40;;
20454;SDS011;10386;54.314;10.022;2022-11-20T03:14:28;5.53;;;3.23;;
20454;SDS011;10386;54.314;10.022;2022-11-20T03:16:56;6.40;;;4.07;;
20454;SDS011;10386;54.314;10.022;2022-11-20T03:19:23;8.83;;;4.27;;
20454;SDS011;10386;54.314;10.022;2022-11-20T03:21:51;4.30;;;3.80;;
20454;SDS011;10386;54.314;10.022;2022-11-20T03:24:18;6.00;;;3.73;;
20454;SDS011;10386;54.314;10.022;2022-11-20T03:27:10;5.73;;;3.80;;
20454;SDS011;10386;54.314;10.022;2022-11-20T03:29:37;9.93;;;3.77;;
20454;SDS011;10386;54.314;10.022;2022-11-20T03:32:04;7.87;;;3.87;;
20454;SDS011;10386;54.314;10.022;2022-11-20T03:34:31;9.17;;;4.20;;
20454;SDS011;10386;54.314;10.022;2022-11-20T03:36:59;9.10;;;4.00;;
20454;SDS011;10386;54.314;10.022;2022-11-20T03:39:26;7.70;;;4.40;;
20454;SDS011;10386;54.314;10.022;2022-11-20T03:41:53;8.93;;;4.20;;
20454;SDS011;10386;54.314;10.022;2022-11-20T03:44:21;9.27;;;3.97;;
20454;SDS011;10386;54.314;10.022;2022-11-20T03:46:48;7.43;;;3.90;;
20454;SDS011;10386;54.314;10.022;2022-11-20T03:49:16;6.00;;;3.50;;
20454;SDS011;10386;54.314;10.022;2022-11-20T03:51:44;7.07;;;3.73;;
20454;SDS011;10386;54.314;10.022;2022-11-20T03:54:13;6.13;;;3.90;;
20454;SDS011;10386;54.314;10.022;2022-11-20T03:56:41;4.43;;;3.27;;
20454;SDS011;10386;54.314;10.022;2022-11-20T03:59:09;9.13;;;3.83;;
20454;SDS011;10386;54.314;10.022;2022-11-20T04:01:37;6.10;;;3.77;;
20454;SDS011;10386;54.314;10.022;2022-11-20T04:04:05;6.30;;;4.17;;
20454;SDS011;10386;54.314;10.022;2022-11-20T04:06:36;6.83;;;3.90;;
20454;SDS011;10386;54.314;10.022;2022-11-20T04:09:04;8.97;;;3.73;;
20454;SDS011;10386;54.314;10.022;2022-11-20T04:11:33;9.07;;;3.53;;
20454;SDS011;10386;54.314;10.022;2022-11-20T04:14:02;5.80;;;4.00;;
20454;SDS011;10386;54.314;10.022;2022-11-20T04:16:33;9.00;;;4.13;;
20454;SDS011;10386;54.314;10.022;2022-11-20T04:19:02;10.20;;;3.80;;
20454;SDS011;10386;54.314;10.022;2022-11-20T04:21:32;6.47;;;4.47;;
20454;SDS011;10386;54.314;10.022;2022-11-20T04:23:59;6.37;;;4.13;;
20454;SDS011;10386;54.314;10.022;2022-11-20T04:26:27;9.40;;;4.23;;
20454;SDS011;10386;54.314;10.022;2022-11-20T04:28:56;9.03;;;3.97;;
20454;SDS011;10386;54.314;10.022;2022-11-20T04:31:25;7.27;;;4.40;;
20454;SDS011;10386;54.314;10.022;2022-11-20T04:33:54;6.63;;;4.60;;
20454;SDS011;10386;54.314;10.022;2022-11-20T04:36:23;6.37;;;3.73;;
20454;SDS011;10386;54.314;10.022;2022-11-20T04:38:59;12.10;;;4.17;;
20454;SDS011;10386;54.314;10.022;2022-11-20T04:41:30;7.30;;;4.40;;
20454;SDS011;10386;54.314;10.022;2022-11-20T04:43:59;8.93;;;4.70;;
20454;SDS011;10386;54.314;10.022;2022-11-20T04:46:32;9.03;;;4.43;;
20454;SDS011;10386;54.314;10.022;2022-11-20T04:49:03;6.50;;;3.93;;
20454;SDS011;10386;54.314;10.022;2022-11-20T04:51:30;8.77;;;4.70;;
20454;SDS011;10386;54.314;10.022;2022-11-20T04:53:58;7.03;;;4.70;;
20454;SDS011;10386;54.314;10.022;2022-11-20T04:56:52;6.53;;;4.53;;
20454;SDS011;10386;54.314;10.022;2022-11-20T04:59:19;6.73;;;4.73;;
20454;SDS011;10386;54.314;10.022;2022-11-20T05:01:49;7.60;;;4.77;;
20454;SDS011;10386;54.314;10.022;2022-11-20T05:04:16;9.27;;;5.00;;
20454;SDS011;10386;54.314;10.022;2022-11-20T05:06:44;7.43;;;4.80;;
20454;SDS011;10386;54.314;10.022;2022-11-20T05:09:12;6.33;;;4.83;;
20454;SDS011;10386;54.314;10.022;2022-11-20T05:11:39;7.50;;;4.70;;
20454;SDS011;10386;54.314;10.022;2022-11-20T05:14:06;8.33;;;5.13;;
20454;SDS011;10386;54.314;10.022;2022-11-20T05:16:33;9.87;;;5.10;;
20454;SDS011;10386;54.314;10.022;2022-11-20T05:19:02;7.40;;;4.77;;
20454;SDS011;10386;54.314;10.022;2022-11-20T05:21:30;7.37;;;5.00;;
20454;SDS011;10386;54.314;10.022;2022-11-20T05:23:58;7.97;;;5.10;;
20454;SDS011;10386;54.314;10.022;2022-11-20T05:26:25;7.83;;;5.13;;
20454;SDS011;10386;54.314;10.022;2022-11-20T05:28:52;8.10;;;4.90;;
20454;SDS011;10386;54.314;10.022;2022-11-20T05:31:23;11.00;;;5.13;;
20454;SDS011;10386;54.314;10.022;2022-11-20T05:33:54;8.23;;;5.47;;
20454;SDS011;10386;54.314;10.022;2022-11-20T05:36:22;7.83;;;4.87;;
20454;SDS011;10386;54.314;10.022;2022-11-20T05:38:50;5.23;;;4.23;;
20454;SDS011;10386;54.314;10.022;2022-11-20T05:41:22;7.03;;;4.87;;
20454;SDS011;10386;54.314;10.022;2022-11-20T05:43:49;8.03;;;4.47;;
20454;SDS011;10386;54.314;10.022;2022-11-20T05:46:43;6.73;;;4.70;;
20454;SDS011;10386;54.314;10.022;2022-11-20T05:49:10;6.67;;;4.73;;
20454;SDS011;10386;54.314;10.022;2022-11-20T05:51:37;8.07;;;4.63;;
20454;SDS011;10386;54.314;10.022;2022-11-20T05:54:06;8.60;;;4.47;;
20454;SDS011;10386;54.314;10.022;2022-11-20T05:56:33;10.27;;;4.37;;
20454;SDS011;10386;54.314;10.022;2022-11-20T05:59:01;7.07;;;4.83;;
20454;SDS011;10386;54.314;10.022;2022-11-20T06:01:28;10.33;;;6.23;;
20454;SDS011;10386;54.314;10.022;2022-11-20T06:03:55;9.77;;;5.97;;
20454;SDS011;10386;54.314;10.022;2022-11-20T06:06:22;6.73;;;5.13;;
20454;SDS011;10386;54.314;10.022;2022-11-20T06:08:49;7.47;;;5.20;;
20454;SDS011;10386;54.314;10.022;2022-11-20T06:11:18;9.30;;;5.40;;
20454;SDS011;10386;54.314;10.022;2022-11-20T06:13:45;9.60;;;5.57;;
20454;SDS011;10386;54.314;10.022;2022-11-20T06:16:14;6.27;;;4.80;;
20454;SDS011;10386;54.314;10.022;2022-11-20T06:18:43;7.23;;;4.40;;
20454;SDS011;10386;54.314;10.022;2022-11-20T06:21:15;6.17;;;5.00;;
20454;SDS011;10386;54.314;10.022;2022-11-20T06:23:46;7.97;;;5.23;;
20454;SDS011;10386;54.314;10.022;2022-11-20T06:26:20;8.83;;;5.70;;
20454;SDS011;10386;54.314;10.022;2022-11-20T06:28:48;7.83;;;5.03;;
20454;SDS011;10386;54.314;10.022;2022-11-20T06:31:18;10.07;;;5.67;;
20454;SDS011;10386;54.314;10.022;2022-11-20T06:33:47;12.50;;;6.73;;
20454;SDS011;10386;54.314;10.022;2022-11-20T06:36:15;9.50;;;5.43;;
20454;SDS011;10386;54.314;10.022;2022-11-20T06:38:44;7.17;;;4.10;;
20454;SDS011;10386;54.314;10.022;2022-11-20T06:41:13;8.20;;;3.83;;
20454;SDS011;10386;54.314;10.022;2022-11-20T06:43:41;6.33;;;4.10;;
20454;SDS011;10386;54.314;10.022;2022-11-20T06:46:09;9.53;;;5.20;;
20454;SDS011;10386;54.314;10.022;2022-11-20T06:48:38;6.87;;;4.50;;
20454;SDS011;10386;54.314;10.022;2022-11-20T06:51:06;6.23;;;3.73;;
20454;SDS011;10386;54.314;10.022;2022-11-20T06:53:34;5.27;;;3.60;;
20454;SDS011;10386;54.314;10.022;2022-11-20T06:56:02;6.47;;;4.17;;
20454;SDS011;10386;54.314;10.022;2022-11-20T06:58:30;6.00;;;3.57;;
20454;SDS011;10386;54.314;10.022;2022-11-20T07:01:02;4.73;;;3.53;;
20454;SDS011;10386;54.314;10.022;2022-11-20T07:03:30;5.73;;;3.67;;
20454;SDS011;10386;54.314;10.022;2022-11-20T07:05:57;5.80;;;4.30;;
20454;SDS011;10386;54.314;10.022;2022-11-20T07:08:26;7.80;;;3.60;;
20454;SDS011;10386;54.314;10.022;2022-11-20T07:10:59;7.60;;;4.07;;
20454;SDS011;10386;54.314;10.022;2022-11-20T07:13:27;5.20;;;3.53;;
20454;SDS011;10386;54.314;10.022;2022-11-20T07:15:54;6.13;;;3.97;;
20454;SDS011;10386;54.314;10.022;2022-11-20T07:18:25;5.13;;;3.33;;
20454;SDS011;10386;54.314;10.022;2022-11-20T07:20:52;6.17;;;3.60;;
20454;SDS011;10386;54.314;10.022;2022-11-20T07:23:19;5.07;;;3.43;;
20454;SDS011;10386;54.314;10.022;2022-11-20T07:25:46;7.43;;;2.80;;
20454;SDS011;10386;54.314;10.022;2022-11-20T07:28:13;2.83;;;2.53;;
20454;SDS011;10386;54.314;10.022;2022-11-20T07:30:40;1.80;;;1.70;;
20454;SDS011;10386;54.314;10.022;2022-11-20T07:33:07;2.43;;;2.20;;
20454;SDS011;10386;54.314;10.022;2022-11-20T07:35:34;2.53;;;2.33;;
20454;SDS011;10386;54.314;10.022;2022-11-20T07:38:02;2.30;;;2.17;;
20454;SDS011;10386;54.314;10.022;2022-11-20T07:40:29;4.47;;;2.30;;
20454;SDS011;10386;54.314;10.022;2022-11-20T07:42:56;3.80;;;2.43;;
20454;SDS011;10386;54.314;10.022;2022-11-20T07:45:23;2.43;;;2.30;;
20454;SDS011;10386;54.314;10.022;2022-11-20T07:47:54;2.93;;;1.90;;
20454;SDS011;10386;54.314;10.022;2022-11-20T07:50:22;3.23;;;2.43;;
20454;SDS011;10386;54.314;10.022;2022-11-20T07:55:47;2.37;;;2.00;;
20454;SDS011;10386;54.314;10.022;2022-11-20T07:58:14;2.83;;;2.53;;
20454;SDS011;10386;54.314;10.022;2022-11-20T08:00:41;1.87;;;1.77;;
20454;SDS011;10386;54.314;10.022;2022-11-20T08:03:08;4.80;;;2.40;;
20454;SDS011;10386;54.314;10.022;2022-11-20T08:05:35;2.00;;;1.90;;
20454;SDS011;10386;54.314;10.022;2022-11-20T08:10:59;2.17;;;2.03;;
20454;SDS011;10386;54.314;10.022;2022-11-20T08:13:44;2.10;;;2.00;;
20454;SDS011;10386;54.314;10.022;2022-11-20T08:16:30;2.83;;;2.30;;
20454;SDS011;10386;54.314;10.022;2022-11-20T08:19:00;6.07;;;2.77;;
20454;SDS011;10386;54.314;10.022;2022-11-20T08:21:31;2.90;;;2.60;;
20454;SDS011;10386;54.314;10.022;2022-11-20T08:24:04;4.00;;;3.60;;
20454;SDS011;10386;54.314;10.022;2022-11-20T08:26:31;2.57;;;2.37;;
20454;SDS011;10386;54.314;10.022;2022-11-20T08:28:59;1.63;;;1.50;;
20454;SDS011;10386;54.314;10.022;2022-11-20T08:31:26;2.17;;;1.87;;
20454;SDS011;10386;54.314;10.022;2022-11-20T08:33:54;2.43;;;1.80;;
20454;SDS011;10386;54.314;10.022;2022-11-20T08:36:22;1.60;;;1.50;;
20454;SDS011;10386;54.314;10.022;2022-11-20T08:38:51;1.77;;;1.67;;
20454;SDS011;10386;54.314;10.022;2022-11-20T08:41:19;3.07;;;1.87;;
20454;SDS011;10386;54.314;10.022;2022-11-20T08:43:50;1.43;;;1.33;;
20454;SDS011;10386;54.314;10.022;2022-11-20T08:46:18;3.73;;;1.80;;
20454;SDS011;10386;54.314;10.022;2022-11-20T08:49:11;22.50;;;8.67;;
20454;SDS011;10386;54.314;10.022;2022-11-20T08:51:40;31.83;;;12.77;;
20454;SDS011;10386;54.314;10.022;2022-11-20T08:54:08;10.93;;;5.03;;
20454;SDS011;10386;54.314;10.022;2022-11-20T08:59:27;3.30;;;2.20;;
20454;SDS011;10386;54.314;10.022;2022-11-20T09:02:14;4.37;;;2.73;;
20454;SDS011;10386;54.314;10.022;2022-11-20T09:04:41;7.47;;;3.23;;
20454;SDS011;10386;54.314;10.022;2022-11-20T09:07:08;3.27;;;2.23;;
20454;SDS011;10386;54.314;10.022;2022-11-20T09:09:35;7.47;;;3.93;;
20454;SDS011;10386;54.314;10.022;2022-11-20T09:12:02;5.87;;;3.93;;
20454;SDS011;10386;54.314;10.022;2022-11-20T09:14:29;4.73;;;3.60;;
20454;SDS011;10386;54.314;10.022;2022-11-20T09:19:49;5.30;;;3.97;;
20454;SDS011;10386;54.314;10.022;2022-11-20T09:22:16;3.50;;;3.20;;
20454;SDS011;10386;54.314;10.022;2022-11-20T09:24:43;4.60;;;3.57;;
20454;SDS011;10386;54.314;10.022;2022-11-20T09:27:09;3.67;;;2.70;;
20454;SDS011;10386;54.314;10.022;2022-11-20T09:29:36;2.50;;;2.30;;
20454;SDS011;10386;54.314;10.022;2022-11-20T09:32:03;4.27;;;2.70;;
20454;SDS011;10386;54.314;10.022;2022-11-20T09:34:31;2.60;;;2.40;;
20454;SDS011;10386;54.314;10.022;2022-11-20T09:36:58;4.30;;;2.13;;
20454;SDS011;10386;54.314;10.022;2022-11-20T09:39:31;3.27;;;2.07;;
20454;SDS011;10386;54.314;10.022;2022-11-20T09:44:53;2.50;;;2.30;;
20454;SDS011;10386;54.314;10.022;2022-11-20T09:52:55;2.87;;;2.67;;
20454;SDS011;10386;54.314;10.022;2022-11-20T09:55:43;3.70;;;2.03;;
20454;SDS011;10386;54.314;10.022;2022-11-20T09:58:35;2.83;;;2.63;;
20454;SDS011;10386;54.314;10.022;2022-11-20T10:01:17;3.17;;;2.53;;
20454;SDS011;10386;54.314;10.022;2022-11-20T10:06:42;2.83;;;2.53;;
20454;SDS011;10386;54.314;10.022;2022-11-20T10:09:49;2.93;;;2.50;;
20454;SDS011;10386;54.314;10.022;2022-11-20T10:21:14;6.60;;;2.90;;
20454;SDS011;10386;54.314;10.022;2022-11-20T10:24:01;4.07;;;3.03;;
20454;SDS011;10386;54.314;10.022;2022-11-20T10:29:16;3.77;;;2.73;;
20454;SDS011;10386;54.314;10.022;2022-11-20T10:31:56;4.30;;;3.00;;
20454;SDS011;10386;54.314;10.022;2022-11-20T10:34:33;4.63;;;3.33;;
20454;SDS011;10386;54.314;10.022;2022-11-20T10:37:12;5.30;;;3.40;;
20454;SDS011;10386;54.314;10.022;2022-11-20T10:45:36;3.97;;;3.57;;
20454;SDS011;10386;54.314;10.022;2022-11-20T10:48:23;3.67;;;3.10;;
20454;SDS011;10386;54.314;10.022;2022-11-20T10:50:57;4.37;;;3.30;;
20454;SDS011;10386;54.314;10.022;2022-11-20T10:53:38;4.13;;;3.00;;
20454;SDS011;10386;54.314;10.022;2022-11-20T10:56:39;6.10;;;2.63;;
20454;SDS011;10386;54.314;10.022;2022-11-20T11:02:21;3.10;;;2.47;;
20454;SDS011;10386;54.314;10.022;2022-11-20T11:04:58;3.00;;;2.80;;
20454;SDS011;10386;54.314;10.022;2022-11-20T11:07:38;6.50;;;2.90;;
20454;SDS011;10386;54.314;10.022;2022-11-20T11:10:14;3.53;;;3.03;;
20454;SDS011;10386;54.314;10.022;2022-11-20T11:13:30;7.43;;;4.50;;
20454;SDS011;10386;54.314;10.022;2022-11-20T11:15:59;6.60;;;3.30;;
20454;SDS011;10386;54.314;10.022;2022-11-20T11:18:32;4.10;;;3.13;;
20454;SDS011;10386;54.314;10.022;2022-11-20T11:21:01;5.73;;;2.93;;
20454;SDS011;10386;54.314;10.022;2022-11-20T11:23:38;3.37;;;3.00;;
20454;SDS011;10386;54.314;10.022;2022-11-20T11:26:18;8.07;;;3.83;;
20454;SDS011;10386;54.314;10.022;2022-11-20T11:28:54;7.87;;;4.73;;
20454;SDS011;10386;54.314;10.022;2022-11-20T11:31:26;4.70;;;3.33;;
20454;SDS011;10386;54.314;10.022;2022-11-20T11:34:18;5.87;;;3.70;;
20454;SDS011;10386;54.314;10.022;2022-11-20T11:36:52;4.60;;;3.40;;
20454;SDS011;10386;54.314;10.022;2022-11-20T11:39:25;4.53;;;3.00;;
20454;SDS011;10386;54.314;10.022;2022-11-20T11:41:55;4.80;;;3.17;;
20454;SDS011;10386;54.314;10.022;2022-11-20T11:44:26;6.00;;;3.27;;
20454;SDS011;10386;54.314;10.022;2022-11-20T11:47:20;6.60;;;4.00;;
20454;SDS011;10386;54.314;10.022;2022-11-20T11:50:02;4.70;;;2.90;;
20454;SDS011;10386;54.314;10.022;2022-11-20T11:52:48;5.30;;;2.93;;
20454;SDS011;10386;54.314;10.022;2022-11-20T11:55:21;9.53;;;2.93;;
20454;SDS011;10386;54.314;10.022;2022-11-20T12:00:45;3.37;;;2.63;;
20454;SDS011;10386;54.314;10.022;2022-11-20T12:06:16;5.33;;;2.97;;
20454;SDS011;10386;54.314;10.022;2022-11-20T12:12:14;6.20;;;3.10;;
20454;SDS011;10386;54.314;10.022;2022-11-20T12:14:46;3.20;;;2.63;;
20454;SDS011;10386;54.314;10.022;2022-11-20T12:17:16;7.60;;;3.10;;
20454;SDS011;10386;54.314;10.022;2022-11-20T12:19:44;6.23;;;2.57;;
20454;SDS011;10386;54.314;10.022;2022-11-20T12:25:14;3.83;;;2.40;;
20454;SDS011;10386;54.314;10.022;2022-11-20T12:30:55;6.67;;;3.10;;
20454;SDS011;10386;54.314;10.022;2022-11-20T12:41:43;7.50;;;4.60;;
20454;SDS011;10386;54.314;10.022;2022-11-20T12:47:51;2.80;;;2.47;;
20454;SDS011;10386;54.314;10.022;2022-11-20T12:56:44;3.70;;;2.50;;
20454;SDS011;10386;54.314;10.022;2022-11-20T13:05:40;2.43;;;2.23;;
20454;SDS011;10386;54.314;10.022;2022-11-20T13:08:22;2.77;;;1.90;;
20454;SDS011;10386;54.314;10.022;2022-11-20T13:14:33;5.87;;;2.67;;
20454;SDS011;10386;54.314;10.022;2022-11-20T13:17:24;3.00;;;2.10;;
20454;SDS011;10386;54.314;10.022;2022-11-20T13:19:57;4.10;;;2.37;;
20454;SDS011;10386;54.314;10.022;2022-11-20T13:22:28;5.53;;;3.10;;
20454;SDS011;10386;54.314;10.022;2022-11-20T13:27:57;6.53;;;2.80;;
20454;SDS011;10386;54.314;10.022;2022-11-20T13:30:33;6.23;;;1.77;;
20454;SDS011;10386;54.314;10.022;2022-11-20T13:33:06;4.73;;;2.70;;
20454;SDS011;10386;54.314;10.022;2022-11-20T13:35:36;7.13;;;2.77;;
20454;SDS011;10386;54.314;10.022;2022-11-20T13:38:13;8.27;;;3.37;;
20454;SDS011;10386;54.314;10.022;2022-11-20T13:40:51;12.33;;;4.53;;
20454;SDS011;10386;54.314;10.022;2022-11-20T13:43:23;4.20;;;2.33;;
20454;SDS011;10386;54.314;10.022;2022-11-20T13:45:57;13.03;;;4.23;;
20454;SDS011;10386;54.314;10.022;2022-11-20T13:48:30;8.10;;;3.53;;
20454;SDS011;10386;54.314;10.022;2022-11-20T13:53:30;5.60;;;2.63;;
20454;SDS011;10386;54.314;10.022;2022-11-20T13:56:16;4.50;;;2.40;;
20454;SDS011;10386;54.314;10.022;2022-11-20T14:01:31;4.10;;;2.60;;
20454;SDS011;10386;54.314;10.022;2022-11-20T14:03:59;3.07;;;2.40;;
20454;SDS011;10386;54.314;10.022;2022-11-20T14:06:34;2.13;;;1.90;;
20454;SDS011;10386;54.314;10.022;2022-11-20T14:09:29;3.90;;;2.50;;
20454;SDS011;10386;54.314;10.022;2022-11-20T14:11:55;5.47;;;3.50;;
20454;SDS011;10386;54.314;10.022;2022-11-20T14:14:24;2.90;;;2.50;;
20454;SDS011;10386;54.314;10.022;2022-11-20T14:17:07;7.73;;;3.47;;
20454;SDS011;10386;54.314;10.022;2022-11-20T14:19:50;2.30;;;2.10;;
20454;SDS011;10386;54.314;10.022;2022-11-20T14:22:23;45.43;;;18.07;;
20454;SDS011;10386;54.314;10.022;2022-11-20T14:27:34;5.13;;;3.17;;
20454;SDS011;10386;54.314;10.022;2022-11-20T14:30:04;6.33;;;2.87;;
20454;SDS011;10386;54.314;10.022;2022-11-20T14:32:31;3.80;;;2.47;;
20454;SDS011;10386;54.314;10.022;2022-11-20T14:35:09;19.70;;;4.30;;
20454;SDS011;10386;54.314;10.022;2022-11-20T14:37:41;40.27;;;8.57;;
20454;SDS011;10386;54.314;10.022;2022-11-20T14:40:41;4.53;;;2.73;;
20454;SDS011;10386;54.314;10.022;2022-11-20T14:43:04;2.07;;;1.87;;
20454;SDS011;10386;54.314;10.022;2022-11-20T14:45:45;8.23;;;3.40;;
20454;SDS011;10386;54.314;10.022;2022-11-20T14:48:23;7.90;;;4.10;;
20454;SDS011;10386;54.314;10.022;2022-11-20T14:50:54;3.57;;;3.13;;
20454;SDS011;10386;54.314;10.022;2022-11-20T14:53:25;6.50;;;3.20;;
20454;SDS011;10386;54.314;10.022;2022-11-20T14:55:58;4.00;;;2.70;;
20454;SDS011;10386;54.314;10.022;2022-11-20T14:58:28;48.67;;;21.03;;
20454;SDS011;10386;54.314;10.022;2022-11-20T15:01:02;23.70;;;7.63;;
20454;SDS011;10386;54.314;10.022;2022-11-20T15:03:35;30.20;;;8.27;;
20454;SDS011;10386;54.314;10.022;2022-11-20T15:06:04;7.43;;;3.87;;
20454;SDS011;10386;54.314;10.022;2022-11-20T15:08:32;11.87;;;5.17;;
20454;SDS011;10386;54.314;10.022;2022-11-20T15:10:59;10.10;;;5.03;;
20454;SDS011;10386;54.314;10.022;2022-11-20T15:15:56;5.03;;;2.63;;
20454;SDS011;10386;54.314;10.022;2022-11-20T15:18:27;10.13;;;4.00;;
20454;SDS011;10386;54.314;10.022;2022-11-20T15:20:56;12.90;;;4.53;;
20454;SDS011;10386;54.314;10.022;2022-11-20T15:23:26;6.23;;;2.60;;
20454;SDS011;10386;54.314;10.022;2022-11-20T15:25:54;9.13;;;3.70;;
20454;SDS011;10386;54.314;10.022;2022-11-20T15:28:23;12.73;;;7.60;;
20454;SDS011;10386;54.314;10.022;2022-11-20T15:31:12;7.00;;;4.40;;
20454;SDS011;10386;54.314;10.022;2022-11-20T15:33:41;14.53;;;7.60;;
20454;SDS011;10386;54.314;10.022;2022-11-20T15:36:09;7.43;;;4.73;;
20454;SDS011;10386;54.314;10.022;2022-11-20T15:38:36;6.33;;;3.47;;
20454;SDS011;10386;54.314;10.022;2022-11-20T15:41:03;11.27;;;4.70;;
20454;SDS011;10386;54.314;10.022;2022-11-20T15:43:30;5.10;;;3.43;;
20454;SDS011;10386;54.314;10.022;2022-11-20T15:46:09;3.60;;;3.30;;
20454;SDS011;10386;54.314;10.022;2022-11-20T15:48:39;3.70;;;3.03;;
20454;SDS011;10386;54.314;10.022;2022-11-20T15:54:19;5.07;;;3.60;;
20454;SDS011;10386;54.314;10.022;2022-11-20T15:56:48;4.20;;;3.37;;
20454;SDS011;10386;54.314;10.022;2022-11-20T15:59:18;3.87;;;2.90;;
20454;SDS011;10386;54.314;10.022;2022-11-20T16:01:46;5.97;;;3.93;;
20454;SDS011;10386;54.314;10.022;2022-11-20T16:04:14;8.47;;;3.83;;
20454;SDS011;10386;54.314;10.022;2022-11-20T16:06:42;10.10;;;4.50;;
20454;SDS011;10386;54.314;10.022;2022-11-20T16:09:09;10.57;;;6.30;;
20454;SDS011;10386;54.314;10.022;2022-11-20T16:11:36;11.80;;;6.60;;
20454;SDS011;10386;54.314;10.022;2022-11-20T16:14:04;37.07;;;13.20;;
20454;SDS011;10386;54.314;10.022;2022-11-20T16:16:52;36.17;;;12.03;;
20454;SDS011;10386;54.314;10.022;2022-11-20T16:19:19;28.73;;;11.33;;
20454;SDS011;10386;54.314;10.022;2022-11-20T16:21:46;46.47;;;19.27;;
20454;SDS011;10386;54.314;10.022;2022-11-20T16:24:13;53.73;;;20.37;;
20454;SDS011;10386;54.314;10.022;2022-11-20T16:26:42;58.83;;;18.03;;
20454;SDS011;10386;54.314;10.022;2022-11-20T16:29:09;55.97;;;21.20;;
20454;SDS011;10386;54.314;10.022;2022-11-20T16:31:36;39.57;;;16.07;;
20454;SDS011;10386;54.314;10.022;2022-11-20T16:34:04;68.87;;;23.27;;
20454;SDS011;10386;54.314;10.022;2022-11-20T16:36:39;63.53;;;22.17;;
20454;SDS011;10386;54.314;10.022;2022-11-20T16:39:07;33.63;;;14.40;;
20454;SDS011;10386;54.314;10.022;2022-11-20T16:41:34;20.27;;;10.83;;
20454;SDS011;10386;54.314;10.022;2022-11-20T16:44:03;15.07;;;8.87;;
20454;SDS011;10386;54.314;10.022;2022-11-20T16:46:33;14.70;;;8.20;;
20454;SDS011;10386;54.314;10.022;2022-11-20T16:49:01;11.13;;;6.50;;
20454;SDS011;10386;54.314;10.022;2022-11-20T16:51:31;9.80;;;6.57;;
20454;SDS011;10386;54.314;10.022;2022-11-20T16:54:01;16.17;;;9.20;;
20454;SDS011;10386;54.314;10.022;2022-11-20T16:56:32;11.90;;;6.67;;